Terminal Aerodrome Forecast
Issued by NWS Charleston, WV

Current Version | Previous Version | Graphics & Text | Print | Product List | Glossary On
Versions: 1 2 3 4 5 6 7 8 9 10 11 12 13 14 15 16 17 18 19 20 21 22 23 24 25 26 27
000
FTUS41 KRLX 242300
TAFHTS
TAF
KHTS 242329Z 2500/2524 07005KT P6SM SCT035
     FM250100 11002KT P6SM SKC
     FM250800 00000KT 5SM BR SKC
     FM251000 00000KT 2SM BR SCT001
     FM251200 00000KT 4SM BR SCT001
     FM251300 00000KT P6SM SKC
     FM251600 12005KT P6SM SCT035=

USA.gov is the U.S. government's official web portal to all federal, state and local government web resources and services.